EDTL

Lahr Airport

Germany
METAR EDTL 211850Z 07003KT CAVOK 24/10 Q1016
Observed Flight Rules
Apr-21 @ 18:50 UTC (12 hours ago) Visual Flight Rules
Wind Visibility Clouds
70° at 3 knots 10,000+ meters
  • Clear skies
Temperatures Readings
Current 24°C / 75°F
Dewpoint 10°C / 50°F
Humidity 41%
Altimeter 30" Hg
Pressure 1016 hPa
Elevation 156
METAR EDTL 211850Z 07003KT CAVOK 24/10 Q1016
Observed Flight Rules
Apr-21 @ 18:50 UTC
(12 hours ago)
VFR
Wind Visibility
70° at 3 knots 10,000+ meters
Clouds
  • Clear skies
Temperature Dewpoint
24°C / 75°F 10°C / 50°F
Humidity Altimeter Pressure
41% 30" Hg 1016 hPa